sensor_id;sensor_type;location;lat;lon;timestamp;P1;durP1;ratioP1;P2;durP2;ratioP2
75234;SDS011;63817;51.228;-1.472;2023-04-16T00:01:48;4.28;;;3.70;;
75234;SDS011;63817;51.228;-1.472;2023-04-16T00:04:13;5.70;;;4.43;;
75234;SDS011;63817;51.228;-1.472;2023-04-16T00:06:38;7.68;;;4.65;;
75234;SDS011;63817;51.228;-1.472;2023-04-16T00:09:04;8.00;;;5.32;;
75234;SDS011;63817;51.228;-1.472;2023-04-16T00:11:29;12.27;;;5.82;;
75234;SDS011;63817;51.228;-1.472;2023-04-16T00:13:55;7.13;;;4.70;;
75234;SDS011;63817;51.228;-1.472;2023-04-16T00:16:20;8.40;;;4.80;;
75234;SDS011;63817;51.228;-1.472;2023-04-16T00:18:46;10.02;;;5.90;;
75234;SDS011;63817;51.228;-1.472;2023-04-16T00:21:11;10.95;;;6.40;;
75234;SDS011;63817;51.228;-1.472;2023-04-16T00:23:37;8.45;;;5.43;;
75234;SDS011;63817;51.228;-1.472;2023-04-16T00:26:02;10.32;;;6.68;;
75234;SDS011;63817;51.228;-1.472;2023-04-16T00:28:28;8.68;;;5.45;;
75234;SDS011;63817;51.228;-1.472;2023-04-16T00:30:54;10.27;;;5.57;;
75234;SDS011;63817;51.228;-1.472;2023-04-16T00:33:19;10.38;;;5.72;;
75234;SDS011;63817;51.228;-1.472;2023-04-16T00:35:45;9.55;;;5.63;;
75234;SDS011;63817;51.228;-1.472;2023-04-16T00:38:11;9.88;;;5.57;;
75234;SDS011;63817;51.228;-1.472;2023-04-16T00:40:37;8.65;;;5.70;;
75234;SDS011;63817;51.228;-1.472;2023-04-16T00:43:02;8.40;;;5.25;;
75234;SDS011;63817;51.228;-1.472;2023-04-16T00:45:28;6.93;;;4.40;;
75234;SDS011;63817;51.228;-1.472;2023-04-16T00:47:54;7.63;;;4.93;;
75234;SDS011;63817;51.228;-1.472;2023-04-16T00:50:19;7.00;;;4.55;;
75234;SDS011;63817;51.228;-1.472;2023-04-16T00:52:48;8.07;;;4.78;;
75234;SDS011;63817;51.228;-1.472;2023-04-16T00:55:14;9.05;;;5.30;;
75234;SDS011;63817;51.228;-1.472;2023-04-16T00:57:42;5.60;;;4.20;;
75234;SDS011;63817;51.228;-1.472;2023-04-16T01:00:08;7.60;;;4.85;;
75234;SDS011;63817;51.228;-1.472;2023-04-16T01:02:34;7.22;;;4.40;;
75234;SDS011;63817;51.228;-1.472;2023-04-16T01:05:00;6.30;;;4.28;;
75234;SDS011;63817;51.228;-1.472;2023-04-16T01:07:25;7.30;;;4.03;;
75234;SDS011;63817;51.228;-1.472;2023-04-16T01:09:51;7.50;;;5.00;;
75234;SDS011;63817;51.228;-1.472;2023-04-16T01:12:16;7.95;;;4.63;;
75234;SDS011;63817;51.228;-1.472;2023-04-16T01:14:42;10.13;;;4.85;;
75234;SDS011;63817;51.228;-1.472;2023-04-16T01:17:08;7.45;;;5.22;;
75234;SDS011;63817;51.228;-1.472;2023-04-16T01:19:33;6.70;;;5.05;;
75234;SDS011;63817;51.228;-1.472;2023-04-16T01:22:02;8.93;;;5.50;;
75234;SDS011;63817;51.228;-1.472;2023-04-16T01:24:28;6.80;;;5.03;;
75234;SDS011;63817;51.228;-1.472;2023-04-16T01:26:56;8.70;;;4.32;;
75234;SDS011;63817;51.228;-1.472;2023-04-16T01:29:24;13.25;;;5.35;;
75234;SDS011;63817;51.228;-1.472;2023-04-16T01:31:50;6.88;;;4.43;;
75234;SDS011;63817;51.228;-1.472;2023-04-16T01:34:16;8.43;;;4.65;;
75234;SDS011;63817;51.228;-1.472;2023-04-16T01:36:41;8.45;;;4.68;;
75234;SDS011;63817;51.228;-1.472;2023-04-16T01:39:07;6.90;;;4.32;;
75234;SDS011;63817;51.228;-1.472;2023-04-16T01:41:35;5.38;;;4.35;;
75234;SDS011;63817;51.228;-1.472;2023-04-16T01:44:01;8.25;;;4.38;;
75234;SDS011;63817;51.228;-1.472;2023-04-16T01:46:26;7.75;;;4.20;;
75234;SDS011;63817;51.228;-1.472;2023-04-16T01:48:53;6.13;;;4.18;;
75234;SDS011;63817;51.228;-1.472;2023-04-16T01:51:19;6.32;;;4.55;;
75234;SDS011;63817;51.228;-1.472;2023-04-16T01:53:45;7.93;;;4.15;;
75234;SDS011;63817;51.228;-1.472;2023-04-16T01:56:10;5.25;;;4.13;;
75234;SDS011;63817;51.228;-1.472;2023-04-16T01:58:36;7.40;;;5.15;;
75234;SDS011;63817;51.228;-1.472;2023-04-16T02:01:01;7.22;;;5.55;;
75234;SDS011;63817;51.228;-1.472;2023-04-16T02:03:27;7.78;;;5.68;;
75234;SDS011;63817;51.228;-1.472;2023-04-16T02:05:53;9.18;;;5.43;;
75234;SDS011;63817;51.228;-1.472;2023-04-16T02:08:18;9.73;;;6.28;;
75234;SDS011;63817;51.228;-1.472;2023-04-16T02:10:45;8.55;;;5.85;;
75234;SDS011;63817;51.228;-1.472;2023-04-16T02:13:11;9.48;;;5.78;;
75234;SDS011;63817;51.228;-1.472;2023-04-16T02:15:37;11.43;;;6.07;;
75234;SDS011;63817;51.228;-1.472;2023-04-16T02:18:02;12.25;;;6.10;;
75234;SDS011;63817;51.228;-1.472;2023-04-16T02:20:28;10.20;;;6.35;;
75234;SDS011;63817;51.228;-1.472;2023-04-16T02:22:53;9.98;;;6.28;;
75234;SDS011;63817;51.228;-1.472;2023-04-16T02:25:18;7.30;;;5.72;;
75234;SDS011;63817;51.228;-1.472;2023-04-16T02:27:44;8.27;;;6.13;;
75234;SDS011;63817;51.228;-1.472;2023-04-16T02:30:09;11.02;;;5.78;;
75234;SDS011;63817;51.228;-1.472;2023-04-16T02:32:35;9.63;;;5.63;;
75234;SDS011;63817;51.228;-1.472;2023-04-16T02:35:00;9.57;;;6.57;;
75234;SDS011;63817;51.228;-1.472;2023-04-16T02:37:28;9.00;;;5.72;;
75234;SDS011;63817;51.228;-1.472;2023-04-16T02:39:53;10.13;;;5.88;;
75234;SDS011;63817;51.228;-1.472;2023-04-16T02:42:18;11.13;;;5.57;;
75234;SDS011;63817;51.228;-1.472;2023-04-16T02:44:44;8.77;;;6.47;;
75234;SDS011;63817;51.228;-1.472;2023-04-16T02:47:09;10.43;;;6.50;;
75234;SDS011;63817;51.228;-1.472;2023-04-16T02:49:35;10.38;;;5.88;;
75234;SDS011;63817;51.228;-1.472;2023-04-16T02:52:00;8.95;;;4.80;;
75234;SDS011;63817;51.228;-1.472;2023-04-16T02:54:26;8.48;;;5.30;;
75234;SDS011;63817;51.228;-1.472;2023-04-16T02:56:51;6.68;;;4.60;;
75234;SDS011;63817;51.228;-1.472;2023-04-16T02:59:16;7.57;;;4.97;;
75234;SDS011;63817;51.228;-1.472;2023-04-16T03:01:42;7.20;;;4.60;;
75234;SDS011;63817;51.228;-1.472;2023-04-16T03:04:07;7.15;;;4.25;;
75234;SDS011;63817;51.228;-1.472;2023-04-16T03:06:33;6.50;;;4.60;;
75234;SDS011;63817;51.228;-1.472;2023-04-16T03:08:58;6.10;;;4.13;;
75234;SDS011;63817;51.228;-1.472;2023-04-16T03:11:24;4.95;;;4.03;;
75234;SDS011;63817;51.228;-1.472;2023-04-16T03:13:49;5.47;;;4.25;;
75234;SDS011;63817;51.228;-1.472;2023-04-16T03:16:14;5.57;;;4.35;;
75234;SDS011;63817;51.228;-1.472;2023-04-16T03:18:40;7.13;;;4.72;;
75234;SDS011;63817;51.228;-1.472;2023-04-16T03:21:05;8.73;;;4.95;;
75234;SDS011;63817;51.228;-1.472;2023-04-16T03:23:31;6.70;;;4.50;;
75234;SDS011;63817;51.228;-1.472;2023-04-16T03:25:56;7.00;;;4.70;;
75234;SDS011;63817;51.228;-1.472;2023-04-16T03:28:21;6.75;;;4.25;;
75234;SDS011;63817;51.228;-1.472;2023-04-16T03:30:50;8.38;;;4.70;;
75234;SDS011;63817;51.228;-1.472;2023-04-16T03:33:16;8.82;;;5.07;;
75234;SDS011;63817;51.228;-1.472;2023-04-16T03:35:42;6.03;;;4.47;;
75234;SDS011;63817;51.228;-1.472;2023-04-16T03:38:07;5.63;;;4.35;;
75234;SDS011;63817;51.228;-1.472;2023-04-16T03:40:33;7.15;;;4.75;;
75234;SDS011;63817;51.228;-1.472;2023-04-16T03:42:58;8.13;;;4.60;;
75234;SDS011;63817;51.228;-1.472;2023-04-16T03:45:24;8.70;;;5.72;;
75234;SDS011;63817;51.228;-1.472;2023-04-16T03:47:49;6.25;;;4.85;;
75234;SDS011;63817;51.228;-1.472;2023-04-16T03:50:17;7.57;;;4.80;;
75234;SDS011;63817;51.228;-1.472;2023-04-16T03:52:43;10.93;;;6.15;;
75234;SDS011;63817;51.228;-1.472;2023-04-16T03:55:09;8.00;;;4.80;;
75234;SDS011;63817;51.228;-1.472;2023-04-16T03:57:34;7.25;;;4.70;;
75234;SDS011;63817;51.228;-1.472;2023-04-16T04:00:00;6.97;;;4.70;;
75234;SDS011;63817;51.228;-1.472;2023-04-16T04:02:25;4.65;;;4.15;;
75234;SDS011;63817;51.228;-1.472;2023-04-16T04:04:51;6.32;;;4.30;;
75234;SDS011;63817;51.228;-1.472;2023-04-16T04:07:16;7.72;;;4.07;;
75234;SDS011;63817;51.228;-1.472;2023-04-16T04:09:42;5.65;;;4.07;;
75234;SDS011;63817;51.228;-1.472;2023-04-16T04:12:07;5.22;;;3.75;;
75234;SDS011;63817;51.228;-1.472;2023-04-16T04:14:34;5.13;;;3.83;;
75234;SDS011;63817;51.228;-1.472;2023-04-16T04:17:03;4.22;;;3.83;;
75234;SDS011;63817;51.228;-1.472;2023-04-16T04:19:32;7.38;;;3.90;;
75234;SDS011;63817;51.228;-1.472;2023-04-16T04:21:58;5.22;;;3.72;;
75234;SDS011;63817;51.228;-1.472;2023-04-16T04:24:23;3.92;;;3.53;;
75234;SDS011;63817;51.228;-1.472;2023-04-16T04:26:48;4.38;;;3.70;;
75234;SDS011;63817;51.228;-1.472;2023-04-16T04:29:14;4.88;;;3.80;;
75234;SDS011;63817;51.228;-1.472;2023-04-16T04:31:39;5.18;;;4.07;;
75234;SDS011;63817;51.228;-1.472;2023-04-16T04:34:05;4.97;;;3.83;;
75234;SDS011;63817;51.228;-1.472;2023-04-16T04:36:30;4.63;;;4.05;;
75234;SDS011;63817;51.228;-1.472;2023-04-16T04:38:56;4.25;;;3.80;;
75234;SDS011;63817;51.228;-1.472;2023-04-16T04:41:21;5.10;;;4.57;;
75234;SDS011;63817;51.228;-1.472;2023-04-16T04:43:47;7.07;;;4.93;;
75234;SDS011;63817;51.228;-1.472;2023-04-16T04:46:12;6.28;;;4.68;;
75234;SDS011;63817;51.228;-1.472;2023-04-16T04:48:37;9.05;;;4.40;;
75234;SDS011;63817;51.228;-1.472;2023-04-16T04:51:03;7.55;;;4.50;;
75234;SDS011;63817;51.228;-1.472;2023-04-16T04:53:29;6.82;;;4.60;;
75234;SDS011;63817;51.228;-1.472;2023-04-16T04:55:54;5.43;;;4.28;;
75234;SDS011;63817;51.228;-1.472;2023-04-16T04:58:21;6.72;;;4.90;;
75234;SDS011;63817;51.228;-1.472;2023-04-16T05:00:46;4.50;;;3.95;;
75234;SDS011;63817;51.228;-1.472;2023-04-16T05:03:12;5.28;;;4.57;;
75234;SDS011;63817;51.228;-1.472;2023-04-16T05:05:38;6.18;;;5.07;;
75234;SDS011;63817;51.228;-1.472;2023-04-16T05:08:04;7.65;;;5.28;;
75234;SDS011;63817;51.228;-1.472;2023-04-16T05:10:29;7.22;;;5.55;;
75234;SDS011;63817;51.228;-1.472;2023-04-16T05:12:55;7.50;;;5.65;;
75234;SDS011;63817;51.228;-1.472;2023-04-16T05:15:20;8.13;;;6.10;;
75234;SDS011;63817;51.228;-1.472;2023-04-16T05:17:45;9.25;;;6.85;;
75234;SDS011;63817;51.228;-1.472;2023-04-16T05:20:11;7.65;;;5.60;;
75234;SDS011;63817;51.228;-1.472;2023-04-16T05:22:36;8.52;;;5.55;;
75234;SDS011;63817;51.228;-1.472;2023-04-16T05:25:02;8.25;;;5.80;;
75234;SDS011;63817;51.228;-1.472;2023-04-16T05:27:27;7.90;;;6.13;;
75234;SDS011;63817;51.228;-1.472;2023-04-16T05:29:53;14.43;;;7.80;;
75234;SDS011;63817;51.228;-1.472;2023-04-16T05:32:18;9.40;;;7.25;;
75234;SDS011;63817;51.228;-1.472;2023-04-16T05:34:44;9.10;;;6.95;;
75234;SDS011;63817;51.228;-1.472;2023-04-16T05:37:09;8.50;;;6.65;;
75234;SDS011;63817;51.228;-1.472;2023-04-16T05:39:35;8.60;;;6.13;;
75234;SDS011;63817;51.228;-1.472;2023-04-16T05:42:00;10.10;;;7.40;;
75234;SDS011;63817;51.228;-1.472;2023-04-16T05:44:26;10.38;;;6.65;;
75234;SDS011;63817;51.228;-1.472;2023-04-16T05:46:51;10.25;;;5.95;;
75234;SDS011;63817;51.228;-1.472;2023-04-16T05:49:17;11.95;;;7.25;;
75234;SDS011;63817;51.228;-1.472;2023-04-16T05:51:46;7.75;;;6.38;;
75234;SDS011;63817;51.228;-1.472;2023-04-16T05:54:12;8.68;;;6.72;;
75234;SDS011;63817;51.228;-1.472;2023-04-16T05:56:37;8.32;;;6.68;;
75234;SDS011;63817;51.228;-1.472;2023-04-16T05:59:03;14.20;;;7.20;;
75234;SDS011;63817;51.228;-1.472;2023-04-16T06:01:28;11.77;;;8.60;;
75234;SDS011;63817;51.228;-1.472;2023-04-16T06:03:53;10.35;;;7.93;;
75234;SDS011;63817;51.228;-1.472;2023-04-16T06:06:19;9.48;;;8.10;;
75234;SDS011;63817;51.228;-1.472;2023-04-16T06:08:44;11.88;;;8.35;;
75234;SDS011;63817;51.228;-1.472;2023-04-16T06:11:10;12.27;;;8.70;;
75234;SDS011;63817;51.228;-1.472;2023-04-16T06:13:36;12.90;;;8.32;;
75234;SDS011;63817;51.228;-1.472;2023-04-16T06:16:03;13.18;;;8.73;;
75234;SDS011;63817;51.228;-1.472;2023-04-16T06:18:29;10.38;;;8.18;;
75234;SDS011;63817;51.228;-1.472;2023-04-16T06:20:54;9.45;;;7.93;;
75234;SDS011;63817;51.228;-1.472;2023-04-16T06:23:20;8.10;;;6.53;;
75234;SDS011;63817;51.228;-1.472;2023-04-16T06:25:45;9.95;;;7.30;;
75234;SDS011;63817;51.228;-1.472;2023-04-16T06:28:11;9.88;;;7.70;;
75234;SDS011;63817;51.228;-1.472;2023-04-16T06:30:36;8.68;;;6.88;;
75234;SDS011;63817;51.228;-1.472;2023-04-16T06:33:01;9.15;;;7.63;;
75234;SDS011;63817;51.228;-1.472;2023-04-16T06:35:27;11.77;;;8.63;;
75234;SDS011;63817;51.228;-1.472;2023-04-16T06:37:52;10.68;;;7.45;;
75234;SDS011;63817;51.228;-1.472;2023-04-16T06:40:18;13.60;;;7.68;;
75234;SDS011;63817;51.228;-1.472;2023-04-16T06:42:43;11.45;;;7.47;;
75234;SDS011;63817;51.228;-1.472;2023-04-16T06:45:08;12.88;;;7.63;;
75234;SDS011;63817;51.228;-1.472;2023-04-16T06:47:34;9.65;;;6.85;;
75234;SDS011;63817;51.228;-1.472;2023-04-16T06:50:00;9.70;;;7.05;;
75234;SDS011;63817;51.228;-1.472;2023-04-16T06:52:25;9.07;;;7.28;;
75234;SDS011;63817;51.228;-1.472;2023-04-16T06:54:51;11.32;;;7.97;;
75234;SDS011;63817;51.228;-1.472;2023-04-16T06:57:16;11.32;;;7.65;;
75234;SDS011;63817;51.228;-1.472;2023-04-16T06:59:41;10.85;;;7.13;;
75234;SDS011;63817;51.228;-1.472;2023-04-16T07:02:10;11.15;;;8.15;;
75234;SDS011;63817;51.228;-1.472;2023-04-16T07:04:35;10.57;;;7.40;;
75234;SDS011;63817;51.228;-1.472;2023-04-16T07:07:01;9.43;;;7.63;;
75234;SDS011;63817;51.228;-1.472;2023-04-16T07:09:26;10.90;;;7.40;;
75234;SDS011;63817;51.228;-1.472;2023-04-16T07:11:52;10.10;;;7.75;;
75234;SDS011;63817;51.228;-1.472;2023-04-16T07:14:18;13.32;;;8.20;;
75234;SDS011;63817;51.228;-1.472;2023-04-16T07:16:43;12.55;;;8.43;;
75234;SDS011;63817;51.228;-1.472;2023-04-16T07:19:08;12.20;;;8.60;;
75234;SDS011;63817;51.228;-1.472;2023-04-16T07:21:34;13.15;;;7.63;;
75234;SDS011;63817;51.228;-1.472;2023-04-16T07:24:00;11.52;;;7.85;;
75234;SDS011;63817;51.228;-1.472;2023-04-16T07:26:25;11.00;;;7.88;;
75234;SDS011;63817;51.228;-1.472;2023-04-16T07:28:51;11.35;;;8.48;;
75234;SDS011;63817;51.228;-1.472;2023-04-16T07:31:16;15.77;;;9.68;;
75234;SDS011;63817;51.228;-1.472;2023-04-16T07:33:42;13.93;;;10.27;;
75234;SDS011;63817;51.228;-1.472;2023-04-16T07:36:07;13.02;;;9.52;;
75234;SDS011;63817;51.228;-1.472;2023-04-16T07:38:32;10.48;;;8.38;;
75234;SDS011;63817;51.228;-1.472;2023-04-16T07:40:59;11.73;;;8.23;;
75234;SDS011;63817;51.228;-1.472;2023-04-16T07:43:24;11.30;;;8.35;;
75234;SDS011;63817;51.228;-1.472;2023-04-16T07:45:50;14.38;;;8.75;;
75234;SDS011;63817;51.228;-1.472;2023-04-16T07:48:16;12.75;;;7.40;;
75234;SDS011;63817;51.228;-1.472;2023-04-16T07:50:41;9.30;;;7.70;;
75234;SDS011;63817;51.228;-1.472;2023-04-16T07:53:09;9.23;;;7.00;;
75234;SDS011;63817;51.228;-1.472;2023-04-16T07:55:35;10.32;;;7.28;;
75234;SDS011;63817;51.228;-1.472;2023-04-16T07:58:00;13.60;;;7.97;;
75234;SDS011;63817;51.228;-1.472;2023-04-16T08:00:26;21.58;;;9.45;;
75234;SDS011;63817;51.228;-1.472;2023-04-16T08:02:52;11.70;;;7.78;;
75234;SDS011;63817;51.228;-1.472;2023-04-16T08:05:18;13.35;;;7.55;;
75234;SDS011;63817;51.228;-1.472;2023-04-16T08:07:43;9.55;;;7.00;;
75234;SDS011;63817;51.228;-1.472;2023-04-16T08:10:08;12.88;;;7.68;;
75234;SDS011;63817;51.228;-1.472;2023-04-16T08:12:34;10.85;;;7.97;;
75234;SDS011;63817;51.228;-1.472;2023-04-16T08:15:00;11.70;;;7.82;;
75234;SDS011;63817;51.228;-1.472;2023-04-16T08:17:25;14.07;;;8.18;;
75234;SDS011;63817;51.228;-1.472;2023-04-16T08:19:52;10.50;;;7.57;;
75234;SDS011;63817;51.228;-1.472;2023-04-16T08:22:18;11.05;;;7.53;;
75234;SDS011;63817;51.228;-1.472;2023-04-16T08:24:43;13.52;;;9.10;;
75234;SDS011;63817;51.228;-1.472;2023-04-16T08:27:09;11.05;;;7.18;;
75234;SDS011;63817;51.228;-1.472;2023-04-16T08:29:36;12.82;;;9.13;;
75234;SDS011;63817;51.228;-1.472;2023-04-16T08:32:01;14.93;;;7.75;;
75234;SDS011;63817;51.228;-1.472;2023-04-16T08:34:27;11.15;;;6.88;;
75234;SDS011;63817;51.228;-1.472;2023-04-16T08:36:52;9.60;;;6.68;;
75234;SDS011;63817;51.228;-1.472;2023-04-16T08:39:18;12.95;;;6.47;;
75234;SDS011;63817;51.228;-1.472;2023-04-16T08:41:44;71.03;;;10.55;;
75234;SDS011;63817;51.228;-1.472;2023-04-16T08:44:13;13.68;;;6.50;;
75234;SDS011;63817;51.228;-1.472;2023-04-16T08:46:44;7.60;;;6.03;;
75234;SDS011;63817;51.228;-1.472;2023-04-16T08:49:11;12.80;;;6.32;;
75234;SDS011;63817;51.228;-1.472;2023-04-16T08:51:51;10.82;;;6.30;;
75234;SDS011;63817;51.228;-1.472;2023-04-16T08:57:04;10.48;;;6.25;;
75234;SDS011;63817;51.228;-1.472;2023-04-16T08:59:30;12.48;;;6.25;;
75234;SDS011;63817;51.228;-1.472;2023-04-16T09:01:56;14.43;;;6.00;;
75234;SDS011;63817;51.228;-1.472;2023-04-16T09:04:24;11.88;;;6.40;;
75234;SDS011;63817;51.228;-1.472;2023-04-16T09:06:51;10.55;;;6.50;;
75234;SDS011;63817;51.228;-1.472;2023-04-16T09:09:18;12.32;;;5.80;;
75234;SDS011;63817;51.228;-1.472;2023-04-16T09:11:45;12.88;;;6.20;;
75234;SDS011;63817;51.228;-1.472;2023-04-16T09:14:11;9.02;;;5.97;;
75234;SDS011;63817;51.228;-1.472;2023-04-16T09:16:36;10.93;;;6.13;;
75234;SDS011;63817;51.228;-1.472;2023-04-16T09:19:02;9.20;;;5.68;;
75234;SDS011;63817;51.228;-1.472;2023-04-16T09:21:28;9.43;;;5.68;;
75234;SDS011;63817;51.228;-1.472;2023-04-16T09:23:53;10.80;;;5.90;;
75234;SDS011;63817;51.228;-1.472;2023-04-16T09:26:19;7.65;;;4.38;;
75234;SDS011;63817;51.228;-1.472;2023-04-16T09:28:46;12.48;;;4.47;;
75234;SDS011;63817;51.228;-1.472;2023-04-16T09:31:13;9.00;;;4.35;;
75234;SDS011;63817;51.228;-1.472;2023-04-16T09:33:40;9.35;;;3.85;;
75234;SDS011;63817;51.228;-1.472;2023-04-16T09:36:07;11.05;;;4.47;;
75234;SDS011;63817;51.228;-1.472;2023-04-16T09:38:49;13.57;;;3.83;;
75234;SDS011;63817;51.228;-1.472;2023-04-16T09:41:16;14.80;;;4.45;;
75234;SDS011;63817;51.228;-1.472;2023-04-16T09:44:15;8.73;;;3.95;;
75234;SDS011;63817;51.228;-1.472;2023-04-16T09:46:33;11.43;;;4.07;;
75234;SDS011;63817;51.228;-1.472;2023-04-16T09:49:18;8.25;;;4.40;;
75234;SDS011;63817;51.228;-1.472;2023-04-16T09:51:45;11.50;;;4.10;;
75234;SDS011;63817;51.228;-1.472;2023-04-16T09:54:13;11.80;;;4.30;;
75234;SDS011;63817;51.228;-1.472;2023-04-16T09:56:43;8.48;;;3.92;;
75234;SDS011;63817;51.228;-1.472;2023-04-16T09:59:16;10.65;;;3.45;;
75234;SDS011;63817;51.228;-1.472;2023-04-16T10:01:42;8.23;;;3.78;;
75234;SDS011;63817;51.228;-1.472;2023-04-16T10:04:10;9.65;;;4.22;;
75234;SDS011;63817;51.228;-1.472;2023-04-16T10:06:35;8.32;;;3.67;;
75234;SDS011;63817;51.228;-1.472;2023-04-16T10:09:01;12.55;;;3.83;;
75234;SDS011;63817;51.228;-1.472;2023-04-16T10:11:31;8.60;;;2.97;;
75234;SDS011;63817;51.228;-1.472;2023-04-16T10:13:56;10.13;;;3.13;;
75234;SDS011;63817;51.228;-1.472;2023-04-16T10:16:22;8.32;;;3.33;;
75234;SDS011;63817;51.228;-1.472;2023-04-16T10:18:48;10.70;;;3.50;;
75234;SDS011;63817;51.228;-1.472;2023-04-16T10:21:13;9.30;;;3.50;;
75234;SDS011;63817;51.228;-1.472;2023-04-16T10:23:40;10.63;;;4.20;;
75234;SDS011;63817;51.228;-1.472;2023-04-16T10:26:07;16.75;;;3.90;;
75234;SDS011;63817;51.228;-1.472;2023-04-16T10:28:32;10.63;;;3.92;;
75234;SDS011;63817;51.228;-1.472;2023-04-16T10:31:00;10.13;;;3.92;;
75234;SDS011;63817;51.228;-1.472;2023-04-16T10:33:27;13.15;;;4.78;;
75234;SDS011;63817;51.228;-1.472;2023-04-16T10:36:14;7.18;;;3.92;;
75234;SDS011;63817;51.228;-1.472;2023-04-16T10:38:44;9.25;;;3.45;;
75234;SDS011;63817;51.228;-1.472;2023-04-16T10:41:10;10.52;;;4.30;;
75234;SDS011;63817;51.228;-1.472;2023-04-16T10:43:39;9.27;;;4.00;;
75234;SDS011;63817;51.228;-1.472;2023-04-16T10:48:53;9.23;;;3.47;;
75234;SDS011;63817;51.228;-1.472;2023-04-16T10:51:27;9.35;;;4.10;;
75234;SDS011;63817;51.228;-1.472;2023-04-16T10:53:56;8.77;;;4.43;;
75234;SDS011;63817;51.228;-1.472;2023-04-16T10:56:27;7.65;;;3.97;;
75234;SDS011;63817;51.228;-1.472;2023-04-16T10:58:55;6.25;;;3.90;;
75234;SDS011;63817;51.228;-1.472;2023-04-16T11:01:31;8.98;;;4.10;;
75234;SDS011;63817;51.228;-1.472;2023-04-16T11:04:00;11.98;;;4.00;;
75234;SDS011;63817;51.228;-1.472;2023-04-16T11:12:19;5.72;;;1.77;;
75234;SDS011;63817;51.228;-1.472;2023-04-16T11:14:50;8.27;;;2.60;;
75234;SDS011;63817;51.228;-1.472;2023-04-16T11:17:17;7.25;;;2.13;;
75234;SDS011;63817;51.228;-1.472;2023-04-16T11:19:43;7.90;;;2.28;;
75234;SDS011;63817;51.228;-1.472;2023-04-16T11:22:13;8.68;;;2.78;;
75234;SDS011;63817;51.228;-1.472;2023-04-16T11:24:41;7.38;;;2.85;;
75234;SDS011;63817;51.228;-1.472;2023-04-16T11:27:08;7.05;;;2.15;;
75234;SDS011;63817;51.228;-1.472;2023-04-16T11:29:33;6.90;;;2.22;;
75234;SDS011;63817;51.228;-1.472;2023-04-16T11:31:59;8.98;;;2.03;;
75234;SDS011;63817;51.228;-1.472;2023-04-16T11:34:25;5.55;;;2.03;;
75234;SDS011;63817;51.228;-1.472;2023-04-16T11:36:50;11.50;;;2.50;;
75234;SDS011;63817;51.228;-1.472;2023-04-16T11:39:16;5.93;;;1.88;;
75234;SDS011;63817;51.228;-1.472;2023-04-16T11:41:46;3.92;;;1.52;;
75234;SDS011;63817;51.228;-1.472;2023-04-16T11:44:19;7.00;;;2.15;;
75234;SDS011;63817;51.228;-1.472;2023-04-16T11:46:47;7.05;;;1.85;;
75234;SDS011;63817;51.228;-1.472;2023-04-16T11:49:12;5.80;;;1.80;;
75234;SDS011;63817;51.228;-1.472;2023-04-16T11:51:38;6.80;;;1.73;;
75234;SDS011;63817;51.228;-1.472;2023-04-16T11:54:17;4.40;;;1.75;;
75234;SDS011;63817;51.228;-1.472;2023-04-16T11:56:44;4.22;;;1.80;;
75234;SDS011;63817;51.228;-1.472;2023-04-16T11:59:15;4.43;;;1.77;;
75234;SDS011;63817;51.228;-1.472;2023-04-16T12:01:50;6.93;;;1.55;;
75234;SDS011;63817;51.228;-1.472;2023-04-16T12:04:20;6.90;;;2.05;;
75234;SDS011;63817;51.228;-1.472;2023-04-16T12:07:04;4.53;;;2.22;;
75234;SDS011;63817;51.228;-1.472;2023-04-16T12:09:33;6.55;;;1.67;;
75234;SDS011;63817;51.228;-1.472;2023-04-16T12:11:59;5.60;;;2.30;;
75234;SDS011;63817;51.228;-1.472;2023-04-16T12:14:25;10.50;;;3.92;;
75234;SDS011;63817;51.228;-1.472;2023-04-16T12:16:50;9.07;;;1.85;;
75234;SDS011;63817;51.228;-1.472;2023-04-16T12:19:16;7.43;;;2.05;;
75234;SDS011;63817;51.228;-1.472;2023-04-16T12:21:45;6.63;;;2.20;;
75234;SDS011;63817;51.228;-1.472;2023-04-16T12:24:13;5.85;;;2.00;;
75234;SDS011;63817;51.228;-1.472;2023-04-16T12:26:44;4.53;;;2.25;;
75234;SDS011;63817;51.228;-1.472;2023-04-16T12:29:23;6.47;;;2.17;;
75234;SDS011;63817;51.228;-1.472;2023-04-16T12:31:50;9.93;;;2.08;;
75234;SDS011;63817;51.228;-1.472;2023-04-16T12:34:17;5.57;;;2.00;;
75234;SDS011;63817;51.228;-1.472;2023-04-16T12:36:43;10.40;;;2.00;;
75234;SDS011;63817;51.228;-1.472;2023-04-16T12:39:09;6.38;;;1.73;;
75234;SDS011;63817;51.228;-1.472;2023-04-16T12:41:36;7.32;;;1.55;;
75234;SDS011;63817;51.228;-1.472;2023-04-16T12:44:06;6.20;;;1.95;;
75234;SDS011;63817;51.228;-1.472;2023-04-16T12:46:40;3.78;;;1.23;;
75234;SDS011;63817;51.228;-1.472;2023-04-16T12:49:06;8.88;;;2.25;;
75234;SDS011;63817;51.228;-1.472;2023-04-16T12:51:35;5.50;;;1.85;;
75234;SDS011;63817;51.228;-1.472;2023-04-16T12:54:01;3.05;;;1.90;;
75234;SDS011;63817;51.228;-1.472;2023-04-16T12:56:28;5.75;;;1.40;;
75234;SDS011;63817;51.228;-1.472;2023-04-16T12:58:54;6.18;;;1.98;;
75234;SDS011;63817;51.228;-1.472;2023-04-16T13:01:20;5.35;;;1.73;;
75234;SDS011;63817;51.228;-1.472;2023-04-16T13:03:46;5.60;;;2.10;;
75234;SDS011;63817;51.228;-1.472;2023-04-16T13:06:12;2.28;;;1.40;;
75234;SDS011;63817;51.228;-1.472;2023-04-16T13:08:39;5.82;;;1.70;;
75234;SDS011;63817;51.228;-1.472;2023-04-16T13:11:05;5.13;;;1.58;;
75234;SDS011;63817;51.228;-1.472;2023-04-16T13:13:31;2.63;;;1.40;;
75234;SDS011;63817;51.228;-1.472;2023-04-16T13:15:56;6.28;;;1.98;;
75234;SDS011;63817;51.228;-1.472;2023-04-16T13:18:22;5.05;;;1.90;;
75234;SDS011;63817;51.228;-1.472;2023-04-16T13:20:47;3.92;;;1.50;;
75234;SDS011;63817;51.228;-1.472;2023-04-16T13:23:13;4.85;;;1.60;;
75234;SDS011;63817;51.228;-1.472;2023-04-16T13:25:38;6.22;;;1.80;;
75234;SDS011;63817;51.228;-1.472;2023-04-16T13:28:04;7.68;;;2.17;;
75234;SDS011;63817;51.228;-1.472;2023-04-16T13:30:29;9.13;;;2.08;;
75234;SDS011;63817;51.228;-1.472;2023-04-16T13:32:55;7.30;;;2.00;;
75234;SDS011;63817;51.228;-1.472;2023-04-16T13:35:21;6.18;;;3.88;;
75234;SDS011;63817;51.228;-1.472;2023-04-16T13:37:47;6.88;;;1.90;;
75234;SDS011;63817;51.228;-1.472;2023-04-16T13:40:12;6.57;;;1.63;;
75234;SDS011;63817;51.228;-1.472;2023-04-16T13:42:38;4.60;;;1.92;;
75234;SDS011;63817;51.228;-1.472;2023-04-16T13:45:03;5.65;;;2.08;;
75234;SDS011;63817;51.228;-1.472;2023-04-16T13:47:29;8.85;;;2.63;;
75234;SDS011;63817;51.228;-1.472;2023-04-16T13:49:54;5.03;;;2.10;;
75234;SDS011;63817;51.228;-1.472;2023-04-16T13:52:20;4.90;;;1.75;;
75234;SDS011;63817;51.228;-1.472;2023-04-16T13:54:45;12.57;;;7.25;;
75234;SDS011;63817;51.228;-1.472;2023-04-16T13:57:11;49.85;;;12.13;;
75234;SDS011;63817;51.228;-1.472;2023-04-16T13:59:36;133.40;;;25.80;;
75234;SDS011;63817;51.228;-1.472;2023-04-16T14:02:02;9.68;;;1.98;;
75234;SDS011;63817;51.228;-1.472;2023-04-16T14:04:29;5.13;;;1.80;;
75234;SDS011;63817;51.228;-1.472;2023-04-16T14:06:55;4.63;;;1.67;;
75234;SDS011;63817;51.228;-1.472;2023-04-16T14:09:20;8.75;;;1.65;;
75234;SDS011;63817;51.228;-1.472;2023-04-16T14:11:46;7.20;;;1.48;;
75234;SDS011;63817;51.228;-1.472;2023-04-16T14:14:11;8.55;;;2.00;;
75234;SDS011;63817;51.228;-1.472;2023-04-16T14:16:37;5.80;;;1.38;;
75234;SDS011;63817;51.228;-1.472;2023-04-16T14:19:02;2.72;;;1.33;;
75234;SDS011;63817;51.228;-1.472;2023-04-16T14:21:28;5.70;;;1.55;;
75234;SDS011;63817;51.228;-1.472;2023-04-16T14:23:53;6.45;;;1.70;;
75234;SDS011;63817;51.228;-1.472;2023-04-16T14:26:19;6.55;;;1.40;;
75234;SDS011;63817;51.228;-1.472;2023-04-16T14:28:44;9.10;;;1.83;;
75234;SDS011;63817;51.228;-1.472;2023-04-16T14:31:10;4.22;;;1.45;;
75234;SDS011;63817;51.228;-1.472;2023-04-16T14:33:35;11.68;;;1.40;;
75234;SDS011;63817;51.228;-1.472;2023-04-16T14:36:01;7.13;;;1.80;;
75234;SDS011;63817;51.228;-1.472;2023-04-16T14:38:27;6.07;;;1.20;;